Airfield :
LOGIN :

Register | Disclaimer

   EN    FR    IT 

 










Legend :    VFR   Marginal VFR   IFR   Intensive IFR   Very Intensive IFR
Visi :
Ceiling :
>= 8 km
>= 3000ft
5 to 8 km
1000 to 3000 ft
1500m to 5 km
500 to 1000 ft
800 to 1500m
200 to 500 ft
< 800m
< 200 ft
Symbols :   Thunderstorms  Fog  Heavy snow  Heavy precipitations  Wind > 20 kt
SIGMETs :     Misc.  Thunderstorms  Icing  Turbulence  Mountain Waves  Volcanic Ashes







- Airport Elevation : 325 ft
- IATA code : BES
- Download approach charts


LFRB - Brest

CURRENT METAR :
  • 270330Z AUTO 05015KT 5000 BR OVC004 17/16 Q1019 BECMG 05014G24KT OVC005

EXPIRED METARs :
  • 270300Z AUTO 05013KT 5000 BR OVC004 17/16 Q1019 BECMG OVC005
  • 270230Z AUTO 06013KT 4900 BR OVC004 17/16 Q1019 BECMG 5000 BR OVC005
  • 270200Z AUTO 05010KT 5000 BR OVC004 17/16 Q1019 BECMG OVC005
  • 270130Z AUTO 06009KT 5000 BR OVC005 17/16 Q1019 NOSIG
  • 270100Z AUTO 06010KT 5000 BR OVC005 17/16 Q1019 NOSIG

TAF TAF LFRB
Valid from the 27 at 00:00 until the 28 at 06:00 UTC


262300Z 2700/2806 07010KT 5000 BR OVC005
BECMG 2703/2706 05014G24KT
BECMG 2708/2710 09010KT CAVOK
BECMG 2715/2718 VRB03KT
ATIS : +33 2 98 32 02 71
No reported NOTAMs for that airfield.
1 SIGMET reported for the Brest FIR (LFRR) :
 
Embedded thunderstorms
LFRR SIGMET 1 VALID 270230/270400 LFPW
LFRR BREST FIR/UIR EMBD TS OBS WI N4700 W00800 - N4900 W00800 - N4915 W00615 - N4430 W00600 - N4445 W00700 - N4700 W00800 TOP FL380 MOV N 20KT NC=



MET'MAP, your aeronautical weather chart ! - Copyright ORBIFLY December 2007 - Disclaimer

ORBIFLY MET'MAP TEAM :

Programming & Development : Alexandra Zaïnal
Concept & Development : Baudouin d'Aumeries
Co-Development & Prog : Marc-Olivier Méhu
Technical & hardware support : Manuel Goepfert

Contact : metmap@orbifly.com




SOURCES & CREDITS :

   NOAA